Time;durP1;ratioP1;P1;durP2;ratioP2;P2;SDS_P1;SDS_P2;PMS_P1;PMS_P2;Temp;Humidity;BMP_temperature;BMP_pressure;BME280_temperature;BME280_humidity;BME280_pressure;Samples;Min_cycle;Max_cycle;Signal;HPM_P1;HPM_P2
2021/04/02 00:00:53;;;;;;;4.07;2.17;;;;;;;5.86;70.91;101652.81;113204;1209;64421;-79
2021/04/02 00:03:26;;;;;;;2.03;1.03;;;;;;;5.82;70.72;101656.64;113226;1209;64458;-80
2021/04/02 00:05:54;;;;;;;3.60;2.23;;;;;;;5.77;70.69;101650.91;113562;1209;64698;-78
2021/04/02 00:08:21;;;;;;;3.73;2.20;;;;;;;5.72;70.89;101649.47;113226;1209;64371;-80
2021/04/02 00:10:49;;;;;;;2.90;1.77;;;;;;;5.68;70.98;101653.30;113180;1209;64493;-79
2021/04/02 00:13:25;;;;;;;2.73;2.00;;;;;;;5.65;71.15;101653.55;113268;1209;64435;-79
2021/04/02 00:15:54;;;;;;;3.37;1.97;;;;;;;5.59;71.66;101653.16;113383;1209;64368;-79
2021/04/02 00:18:25;;;;;;;2.40;1.05;;;;;;;5.54;71.69;101650.06;113266;1209;64387;-78
2021/04/02 00:20:55;;;;;;;2.30;1.45;;;;;;;5.49;72.42;101658.31;113321;1209;64358;-78
2021/04/02 00:23:22;;;;;;;2.40;1.20;;;;;;;5.45;72.17;101656.88;113341;1209;64413;-79
2021/04/02 00:25:49;;;;;;;5.37;1.90;;;;;;;5.38;73.04;101645.98;113199;1209;64467;-77
2021/04/02 00:28:16;;;;;;;3.50;2.00;;;;;;;5.37;71.88;101648.72;113154;1209;64390;-81
2021/04/02 00:30:52;;;;;;;2.87;1.90;;;;;;;5.31;73.68;101648.25;113250;1209;64782;-78
2021/04/02 00:33:20;;;;;;;2.50;1.75;;;;;;;5.31;72.75;101642.13;113178;1208;64390;-77
2021/04/02 00:35:47;;;;;;;3.60;1.80;;;;;;;5.29;72.81;101646.66;113876;1209;64480;-78
2021/04/02 00:38:14;;;;;;;3.30;1.70;;;;;;;5.24;73.47;101643.56;113176;1209;64409;-78
2021/04/02 00:40:45;;;;;;;2.77;1.90;;;;;;;5.17;74.52;101637.94;113133;1209;64323;-78
2021/04/02 00:43:13;;;;;;;2.20;1.60;;;;;;;5.09;74.23;101632.41;113189;1209;64342;-78
2021/04/02 00:45:40;;;;;;;2.55;1.85;;;;;;;5.01;74.32;101632.98;113386;1209;64409;-79
2021/04/02 00:48:08;;;;;;;2.17;1.30;;;;;;;4.92;74.08;101633.68;113511;1209;64351;-79
2021/04/02 00:50:42;;;;;;;1.67;0.73;;;;;;;4.84;75.11;101631.61;113593;1209;64429;-79
2021/04/02 00:53:10;;;;;;;2.70;1.80;;;;;;;4.78;75.17;101621.58;113188;1209;64796;-80
2021/04/02 00:55:38;;;;;;;2.53;1.40;;;;;;;4.75;75.14;101626.22;113330;1209;64373;-79
2021/04/02 00:58:11;;;;;;;3.73;1.73;;;;;;;4.76;74.89;101623.48;113241;1209;64493;-81
2021/04/02 01:00:37;;;;;;;2.00;1.23;;;;;;;4.75;75.36;101620.97;113310;1209;64457;-81
2021/04/02 01:03:05;;;;;;;2.45;1.40;;;;;;;4.70;75.30;101629.20;113302;1209;64480;-79
2021/04/02 01:05:37;;;;;;;1.40;0.90;;;;;;;4.68;75.62;101623.21;113303;1209;64384;-81
2021/04/02 01:08:06;;;;;;;1.50;1.20;;;;;;;4.65;75.20;101621.66;113280;1209;64260;-81
2021/04/02 01:10:33;;;;;;;1.93;1.10;;;;;;;4.66;75.92;101620.69;113378;1209;64316;-76
2021/04/02 01:13:12;;;;;;;1.77;1.10;;;;;;;4.68;75.30;101620.59;113186;1209;64378;-77
2021/04/02 01:15:46;;;;;;;3.90;1.80;;;;;;;4.70;75.41;101626.56;113037;1209;64505;-77
2021/04/02 01:18:21;;;;;;;1.57;0.90;;;;;;;4.73;75.97;101625.50;113061;1209;64330;-78
2021/04/02 01:20:53;;;;;;;1.60;1.30;;;;;;;4.73;75.11;101623.70;113081;1209;65622;-76
2021/04/02 01:23:23;;;;;;;3.50;1.63;;;;;;;4.76;74.90;101623.48;113109;1209;64373;-76
2021/04/02 01:26:16;;;;;;;2.17;1.30;;;;;;;4.79;74.60;101625.88;113045;1207;64326;-77
2021/04/02 01:29:13;;;;;;;2.03;1.33;;;;;;;4.85;74.89;101627.22;112881;1209;64464;-78
2021/04/02 01:31:47;;;;;;;4.03;2.00;;;;;;;4.90;74.12;101625.06;113088;1209;64333;-77
2021/04/02 01:34:18;;;;;;;2.23;1.47;;;;;;;4.91;73.78;101626.77;113186;1209;64457;-78
2021/04/02 01:36:46;;;;;;;2.00;1.63;;;;;;;4.95;74.20;101622.09;113069;1209;64445;-78
2021/04/02 01:39:13;;;;;;;2.77;2.07;;;;;;;4.98;74.29;101627.13;113037;1209;64406;-76
2021/04/02 01:41:44;;;;;;;1.80;1.07;;;;;;;5.01;74.22;101626.89;112993;1209;64339;-77
2021/04/02 01:44:10;;;;;;;1.83;1.20;;;;;;;4.97;74.76;101618.38;112953;1209;64387;-75
2021/04/02 01:46:41;;;;;;;4.37;1.37;;;;;;;4.91;74.55;101621.50;113026;1209;64467;-77
2021/04/02 01:49:11;;;;;;;1.05;0.75;;;;;;;4.88;74.47;101619.91;113204;1212;64901;-76
2021/04/02 01:51:41;;;;;;;1.67;1.10;;;;;;;4.81;74.77;101626.59;113103;1209;64421;-76
2021/04/02 01:54:09;;;;;;;2.40;1.50;;;;;;;4.79;74.27;101623.24;112909;1209;64386;-76
2021/04/02 01:56:37;;;;;;;1.57;0.83;;;;;;;4.79;74.39;101627.67;113203;1209;64470;-77
2021/04/02 01:59:05;;;;;;;2.10;1.00;;;;;;;4.78;74.48;101625.98;112993;1209;64387;-76
2021/04/02 02:01:37;;;;;;;1.90;1.10;;;;;;;4.76;74.58;101620.86;113069;1209;64329;-76
2021/04/02 02:04:06;;;;;;;2.30;1.35;;;;;;;4.76;74.20;101622.63;113035;1209;64361;-77
2021/04/02 02:06:34;;;;;;;2.57;1.87;;;;;;;4.74;74.34;101617.50;113010;1209;65052;-77
2021/04/02 02:09:13;;;;;;;2.50;1.20;;;;;;;4.74;74.61;101628.02;113013;1209;64406;-76
2021/04/02 02:11:41;;;;;;;1.63;1.00;;;;;;;4.75;74.68;101631.48;112979;1209;64413;-77
2021/04/02 02:14:16;;;;;;;2.17;1.00;;;;;;;4.74;74.34;101628.02;113030;1209;65539;-77
2021/04/02 02:16:46;;;;;;;1.30;0.87;;;;;;;4.73;74.90;101628.95;113087;1209;64333;-78
2021/04/02 02:19:19;;;;;;;1.87;0.90;;;;;;;4.73;75.08;101625.50;112932;1209;64454;-76
2021/04/02 02:21:48;;;;;;;1.33;0.90;;;;;;;4.71;75.26;101625.59;113067;1209;65347;-76
2021/04/02 02:24:17;;;;;;;1.60;1.10;;;;;;;4.72;74.88;101627.30;113085;1209;64496;-76
2021/04/02 02:26:44;;;;;;;1.40;0.77;;;;;;;4.74;74.70;101630.65;113048;1209;64744;-76
2021/04/02 02:29:12;;;;;;;2.15;1.60;;;;;;;4.77;73.99;101629.58;113071;1209;64378;-77
2021/04/02 02:31:40;;;;;;;1.07;0.73;;;;;;;4.77;74.34;101626.95;113014;1209;64712;-76
2021/04/02 02:34:08;;;;;;;1.40;0.93;;;;;;;4.78;74.61;101631.23;112987;1209;64480;-75
2021/04/02 02:36:36;;;;;;;1.87;1.30;;;;;;;4.76;73.70;101628.74;113060;1209;64359;-76
2021/04/02 02:39:11;;;;;;;2.40;1.20;;;;;;;4.75;74.54;101631.48;112973;1209;64422;-76
2021/04/02 02:41:38;;;;;;;3.27;0.83;;;;;;;4.75;74.09;101637.56;113085;1209;64885;-78
2021/04/02 02:44:06;;;;;;;1.50;0.83;;;;;;;4.76;74.51;101644.52;113184;1209;64489;-78
2021/04/02 02:46:33;;;;;;;1.65;0.80;;;;;;;4.75;74.52;101648.08;113088;1209;64489;-78
2021/04/02 02:49:04;;;;;;;2.53;1.67;;;;;;;4.78;74.17;101645.24;113344;1209;64362;-78
2021/04/02 02:51:33;;;;;;;1.03;0.70;;;;;;;4.80;74.28;101645.11;113142;1209;65737;-76
2021/04/02 02:54:03;;;;;;;1.83;1.10;;;;;;;4.81;74.16;101642.38;113085;1209;64377;-77
2021/04/02 02:56:31;;;;;;;1.60;1.00;;;;;;;4.77;74.41;101635.66;113085;1209;64544;-77
2021/04/02 02:59:02;;;;;;;2.10;1.40;;;;;;;4.76;74.36;101638.39;113446;1209;64438;-79
2021/04/02 03:01:33;;;;;;;1.87;1.20;;;;;;;4.74;74.53;101635.91;113431;1209;64416;-77
2021/04/02 03:04:02;;;;;;;1.70;1.03;;;;;;;4.74;75.07;101635.91;113101;1209;64358;-77
2021/04/02 03:06:34;;;;;;;3.40;1.20;;;;;;;4.74;75.04;101635.91;113099;1209;64372;-77
2021/04/02 03:09:01;;;;;;;3.17;2.00;;;;;;;4.76;74.67;101643.66;113011;1209;64381;-76
2021/04/02 03:11:28;;;;;;;2.85;1.70;;;;;;;4.79;74.29;101644.27;113000;1209;64499;-76
2021/04/02 03:13:56;;;;;;;2.15;1.40;;;;;;;4.83;74.01;101635.20;112936;1209;64381;-77
2021/04/02 03:16:25;;;;;;;1.77;1.20;;;;;;;4.85;74.36;101638.56;113164;1209;64381;-77
2021/04/02 03:18:55;;;;;;;1.90;1.30;;;;;;;4.84;74.06;101636.87;113030;1209;64349;-76
2021/04/02 03:21:22;;;;;;;1.50;0.80;;;;;;;4.83;74.25;101640.47;112967;1209;64371;-76
2021/04/02 03:23:50;;;;;;;0.83;0.50;;;;;;;4.82;74.37;101638.77;113041;1209;64355;-77
2021/04/02 03:26:18;;;;;;;1.57;1.07;;;;;;;4.81;74.42;101642.38;113097;1209;64390;-76
2021/04/02 03:28:47;;;;;;;1.50;0.50;;;;;;;4.81;73.85;101637.11;113122;1209;64407;-77
2021/04/02 03:31:15;;;;;;;1.70;1.00;;;;;;;4.81;74.33;101639.74;113706;1209;64784;-77
2021/04/02 03:33:53;;;;;;;2.67;1.20;;;;;;;4.82;73.27;101643.20;113555;1209;64461;-78
2021/04/02 03:36:24;;;;;;;1.10;0.70;;;;;;;4.81;73.29;101641.54;113212;1209;64391;-77
2021/04/02 03:38:51;;;;;;;1.33;0.80;;;;;;;4.79;73.23;101648.70;112937;1209;64484;-77
2021/04/02 03:41:23;;;;;;;0.60;0.40;;;;;;;4.79;73.45;101652.16;112907;1209;64474;-78
2021/04/02 03:43:51;;;;;;;2.25;0.90;;;;;;;4.78;73.66;101658.38;112875;1209;65566;-79
2021/04/02 03:46:20;;;;;;;1.27;0.80;;;;;;;4.78;73.05;101650.50;112924;1209;64512;-78
2021/04/02 03:48:49;;;;;;;1.30;0.70;;;;;;;4.77;73.25;101651.44;113008;1209;64378;-79
2021/04/02 03:51:21;;;;;;;1.00;0.60;;;;;;;4.78;73.53;101655.75;112835;1209;64457;-79
2021/04/02 03:53:55;;;;;;;1.60;0.80;;;;;;;4.77;73.08;101656.69;112909;1209;64397;-78
2021/04/02 03:56:28;;;;;;;2.40;0.70;;;;;;;4.75;72.98;101655.13;112924;1209;64384;-78
2021/04/02 03:58:57;;;;;;;0.70;0.50;;;;;;;4.70;72.91;101652.84;113200;1209;64422;-77
2021/04/02 04:01:30;;;;;;;0.75;0.40;;;;;;;4.66;72.58;101648.77;113132;1209;64384;-77
2021/04/02 04:03:59;;;;;;;1.67;1.03;;;;;;;4.59;72.49;101642.27;112987;1209;64423;-77
2021/04/02 04:06:26;;;;;;;0.70;0.40;;;;;;;4.55;72.88;101640.81;112957;1209;64429;-77
2021/04/02 04:09:01;;;;;;;0.60;0.47;;;;;;;4.52;72.81;101634.00;113165;1209;64362;-77
2021/04/02 04:11:30;;;;;;;1.00;0.60;;;;;;;4.53;72.41;101632.20;113303;1209;64483;-78
2021/04/02 04:13:59;;;;;;;1.10;0.40;;;;;;;4.48;72.61;101622.89;114896;1209;64265;-79
2021/04/02 04:16:26;;;;;;;0.67;0.37;;;;;;;4.47;72.99;101636.14;115490;1209;64400;-79
2021/04/02 04:19:01;;;;;;;1.35;0.60;;;;;;;4.47;73.34;101631.71;113426;1209;64402;-78
2021/04/02 04:21:38;;;;;;;0.80;0.50;;;;;;;4.45;73.06;101633.61;113073;1209;64381;-77
2021/04/02 04:24:13;;;;;;;0.83;0.50;;;;;;;4.45;73.09;101628.36;113019;1209;64595;-77
2021/04/02 04:26:42;;;;;;;;;;;;;;;4.45;73.55;101635.41;113012;1216;64939;-77
2021/04/02 04:29:16;;;;;;;1.00;0.77;;;;;;;4.44;73.21;101639.83;112903;1209;64391;-76
2021/04/02 04:31:44;;;;;;;0.98;0.60;;;;;;;4.42;72.83;101633.85;113013;1209;65329;-76
2021/04/02 04:34:13;;;;;;;1.60;0.60;;;;;;;4.39;73.70;101636.69;113080;1209;64490;-78
2021/04/02 04:36:43;;;;;;;1.20;0.60;;;;;;;4.40;73.63;101632.26;113262;1209;64509;-78
2021/04/02 04:39:09;;;;;;;1.10;0.80;;;;;;;4.39;73.18;101635.85;113170;1209;64381;-77
2021/04/02 04:41:37;;;;;;;1.07;0.50;;;;;;;4.35;73.20;101640.48;113183;1209;64387;-77
2021/04/02 04:44:07;;;;;;;1.25;0.60;;;;;;;4.33;73.44;101637.13;113404;1209;64422;-78
2021/04/02 04:46:34;;;;;;;2.00;0.70;;;;;;;4.31;73.87;101639.02;113295;1208;64346;-78
2021/04/02 04:49:00;;;;;;;1.30;0.63;;;;;;;4.32;73.50;101639.88;113110;1209;64447;-78
2021/04/02 04:51:30;;;;;;;1.80;0.90;;;;;;;4.32;74.00;101637.26;113089;1209;64369;-76
2021/04/02 04:53:59;;;;;;;1.23;0.70;;;;;;;4.29;74.06;101631.28;113072;1209;64441;-77
2021/04/02 04:56:31;;;;;;;1.70;0.80;;;;;;;4.27;73.37;101640.19;113128;1209;64410;-78
2021/04/02 04:59:01;;;;;;;1.07;0.60;;;;;;;4.25;73.40;101634.20;113372;1209;64445;-78
2021/04/02 05:01:35;;;;;;;1.00;0.50;;;;;;;4.25;73.12;101634.20;113183;1209;65071;-77
2021/04/02 05:04:04;;;;;;;1.07;0.70;;;;;;;4.25;73.01;101632.45;112982;1209;64448;-77
2021/04/02 05:06:34;;;;;;;0.63;0.47;;;;;;;4.27;73.23;101624.43;113144;1209;65605;-77
2021/04/02 05:09:03;;;;;;;1.40;0.80;;;;;;;4.31;72.99;101623.27;113083;1209;64774;-77
2021/04/02 05:11:32;;;;;;;0.70;0.45;;;;;;;4.35;73.05;101629.97;112908;1209;64444;-77
2021/04/02 05:14:01;;;;;;;1.13;0.63;;;;;;;4.36;72.30;101642.17;113010;1209;64486;-78
2021/04/02 05:16:30;;;;;;;0.87;0.43;;;;;;;4.37;72.96;101640.38;113138;1209;64434;-78
2021/04/02 05:18:58;;;;;;;0.70;0.40;;;;;;;4.38;72.60;101645.53;113189;1209;64457;-78
2021/04/02 05:21:25;;;;;;;0.83;0.37;;;;;;;4.39;72.15;101638.48;113104;1209;64425;-78
2021/04/02 05:23:52;;;;;;;0.83;0.50;;;;;;;4.38;72.35;101634.16;113091;1209;64404;-78
2021/04/02 05:26:20;;;;;;;0.70;0.50;;;;;;;4.42;72.61;101631.22;113213;1209;64515;-79
2021/04/02 05:28:49;;;;;;;0.80;0.60;;;;;;;4.46;71.93;101632.68;114202;1209;64483;-77
2021/04/02 05:31:19;;;;;;;0.70;0.40;;;;;;;4.51;72.06;101650.73;113704;1209;64521;-77
2021/04/02 05:34:06;;;;;;;2.05;0.60;;;;;;;4.55;71.71;101656.58;112989;1209;64423;-76
2021/04/02 05:36:32;;;;;;;0.90;0.60;;;;;;;4.57;71.88;101659.94;112960;1209;64371;-77
2021/04/02 05:38:59;;;;;;;1.75;0.40;;;;;;;4.59;71.71;101665.91;112927;1209;64406;-79
2021/04/02 05:41:34;;;;;;;0.70;0.40;;;;;;;4.60;71.80;101659.73;112968;1209;64445;-76
2021/04/02 05:44:06;;;;;;;0.70;0.40;;;;;;;4.61;71.66;101651.73;113019;1209;64314;-77
2021/04/02 05:46:36;;;;;;;1.20;0.80;;;;;;;4.60;71.63;101657.09;113008;1209;64361;-77
2021/04/02 05:49:05;;;;;;;1.35;0.70;;;;;;;4.62;71.28;101665.70;112961;1209;64263;-77
2021/04/02 05:51:33;;;;;;;1.37;0.50;;;;;;;4.61;72.19;101656.13;112979;1209;64384;-77
2021/04/02 05:54:00;;;;;;;0.60;0.40;;;;;;;4.67;71.17;101651.27;112917;1209;64314;-77
2021/04/02 05:56:27;;;;;;;1.00;0.40;;;;;;;4.73;71.59;101654.41;112940;1209;64381;-76
2021/04/02 05:58:55;;;;;;;1.00;0.50;;;;;;;4.78;71.22;101657.52;113086;1209;64310;-78
2021/04/02 06:01:21;;;;;;;0.60;0.40;;;;;;;4.78;71.11;101661.02;112930;1209;64406;-77
2021/04/02 06:03:48;;;;;;;0.70;0.40;;;;;;;4.81;71.26;101655.52;113018;1209;64397;-79
2021/04/02 06:06:15;;;;;;;0.70;0.50;;;;;;;4.85;70.89;101659.59;113406;1209;64378;-78
2021/04/02 06:08:47;;;;;;;0.30;0.20;;;;;;;4.89;70.83;101657.59;113216;1209;64359;-79
2021/04/02 06:11:14;;;;;;;0.70;0.40;;;;;;;4.94;70.97;101649.34;113034;1209;64413;-80
2021/04/02 06:13:41;;;;;;;0.57;0.43;;;;;;;4.98;70.04;101641.11;113021;1209;64336;-76
2021/04/02 06:16:08;;;;;;;1.57;0.60;;;;;;;5.00;69.79;101646.27;112913;1209;64442;-76
2021/04/02 06:18:39;;;;;;;0.93;0.53;;;;;;;5.06;70.03;101645.80;112967;1209;64412;-77
2021/04/02 06:21:07;;;;;;;1.13;0.67;;;;;;;5.09;69.08;101641.13;112970;1209;64381;-78
2021/04/02 06:23:38;;;;;;;1.20;0.60;;;;;;;5.16;69.26;101644.13;113033;1209;64346;-76
2021/04/02 06:26:13;;;;;;;2.83;0.70;;;;;;;5.21;68.98;101654.33;112898;1209;64304;-77
2021/04/02 06:28:42;;;;;;;0.70;0.45;;;;;;;5.25;68.81;101661.03;112982;1209;64381;-75
2021/04/02 06:31:17;;;;;;;0.93;0.50;;;;;;;5.26;68.16;101663.53;113324;1209;64477;-79
2021/04/02 06:33:54;;;;;;;;;;;;;;;5.26;68.27;101652.17;113267;1217;64376;-78
2021/04/02 06:36:28;;;;;;;0.75;0.50;;;;;;;5.26;68.40;101657.44;115586;1209;64259;-79
2021/04/02 06:38:57;;;;;;;1.38;0.78;;;;;;;5.30;67.75;101659.71;114433;1209;64438;-76
2021/04/02 06:41:26;;;;;;;2.50;1.07;;;;;;;5.40;68.46;101659.00;113273;1209;64489;-77
2021/04/02 06:43:59;;;;;;;1.60;0.60;;;;;;;5.47;67.78;101655.80;113169;1208;64550;-79
2021/04/02 06:46:38;;;;;;;1.90;1.10;;;;;;;5.57;67.27;101660.34;113113;1209;64378;-78
2021/04/02 06:49:16;;;;;;;2.17;0.97;;;;;;;5.62;67.18;101653.77;113028;1209;64470;-78
2021/04/02 06:51:45;;;;;;;2.40;1.00;;;;;;;5.64;66.84;101646.59;113173;1209;64339;-77
2021/04/02 06:54:26;;;;;;;3.43;1.80;;;;;;;5.70;66.67;101643.48;112989;1209;64474;-75
2021/04/02 06:57:11;;;;;;;2.20;1.10;;;;;;;5.75;66.22;101644.92;112949;1209;64413;-75
2021/04/02 06:59:40;;;;;;;2.53;1.33;;;;;;;5.81;67.29;101647.08;112956;1209;64387;-78
2021/04/02 07:02:09;;;;;;;2.33;1.23;;;;;;;5.88;66.79;101656.16;113206;1209;64307;-77
2021/04/02 07:04:39;;;;;;;4.03;2.13;;;;;;;5.85;65.80;101656.41;112942;1209;64378;-76
2021/04/02 07:07:10;;;;;;;3.07;1.53;;;;;;;5.79;66.18;101662.16;112948;1209;64521;-77
2021/04/02 07:09:41;;;;;;;5.10;3.23;;;;;;;5.74;66.44;101651.98;112984;1209;64422;-77
2021/04/02 07:12:09;;;;;;;4.13;2.30;;;;;;;5.82;66.07;101654.86;112747;1209;64356;-76
2021/04/02 07:14:37;;;;;;;3.57;1.70;;;;;;;5.89;66.24;101666.58;113158;1209;64356;-76
2021/04/02 07:17:05;;;;;;;3.87;2.30;;;;;;;5.87;66.13;101654.50;113079;1209;64360;-77
2021/04/02 07:19:33;;;;;;;5.37;2.77;;;;;;;5.91;66.06;101666.47;113013;1209;64841;-78
2021/04/02 07:22:08;;;;;;;5.07;2.87;;;;;;;5.99;65.63;101656.17;113026;1209;64329;-79
2021/04/02 07:24:36;;;;;;;4.50;2.10;;;;;;;6.08;66.04;101655.47;113004;1209;64352;-77
2021/04/02 07:27:02;;;;;;;8.40;2.97;;;;;;;6.16;65.30;101652.20;112937;1209;64832;-75
2021/04/02 07:29:30;;;;;;;4.90;2.47;;;;;;;6.28;65.65;101650.39;113057;1209;64349;-75
2021/04/02 07:31:57;;;;;;;6.30;2.95;;;;;;;6.42;65.71;101657.17;112981;1209;64371;-75
2021/04/02 07:34:24;;;;;;;4.43;2.43;;;;;;;6.58;65.18;101656.78;112945;1209;64375;-75
2021/04/02 07:36:52;;;;;;;4.53;2.50;;;;;;;6.64;64.90;101661.55;112903;1209;64378;-77
2021/04/02 07:39:20;;;;;;;5.53;3.10;;;;;;;6.61;65.11;101651.23;112901;1209;64439;-75
2021/04/02 07:41:50;;;;;;;6.73;3.67;;;;;;;6.58;64.86;101652.34;112943;1209;64381;-74
2021/04/02 07:44:18;;;;;;;9.20;4.10;;;;;;;6.62;65.89;101658.20;113376;1209;64487;-74
2021/04/02 07:47:08;;;;;;;7.80;4.33;;;;;;;6.71;65.42;101652.17;112930;1209;64390;-75
2021/04/02 07:49:47;;;;;;;6.40;3.17;;;;;;;6.82;64.94;101644.23;113002;1209;64432;-77
2021/04/02 07:52:14;;;;;;;5.53;2.83;;;;;;;6.92;65.62;101647.75;112939;1209;64272;-77
2021/04/02 07:54:44;;;;;;;5.47;3.07;;;;;;;6.99;65.44;101647.24;113391;1209;65235;-75
2021/04/02 07:57:11;;;;;;;8.57;4.43;;;;;;;7.06;65.18;101645.78;112993;1209;64394;-74
2021/04/02 07:59:41;;;;;;;7.00;3.37;;;;;;;7.06;64.93;101643.14;112935;1209;64439;-75
2021/04/02 08:02:17;;;;;;;7.75;3.95;;;;;;;7.07;65.79;101647.44;113204;1209;64374;-76
2021/04/02 08:04:53;;;;;;;8.10;5.30;;;;;;;6.98;65.68;101648.22;113013;1209;64394;-75
2021/04/02 08:07:57;;;;;;;8.97;3.90;;;;;;;6.99;66.44;101644.61;112990;1209;64931;-78
2021/04/02 08:10:25;;;;;;;5.90;3.40;;;;;;;7.03;67.67;101651.30;113287;1209;64662;-75
2021/04/02 08:12:51;;;;;;;6.23;3.87;;;;;;;7.07;67.43;101652.72;113020;1209;64381;-76
2021/04/02 08:15:19;;;;;;;6.37;3.93;;;;;;;7.01;67.78;101653.23;112981;1209;64419;-75
2021/04/02 08:17:48;;;;;;;6.63;3.67;;;;;;;7.03;67.64;101651.30;114086;1209;64272;-75
2021/04/02 08:20:18;;;;;;;4.60;3.20;;;;;;;7.07;68.18;101652.72;112992;1209;64512;-77
2021/04/02 08:22:49;;;;;;;8.50;3.93;;;;;;;7.19;67.54;101662.25;113229;1209;65337;-75
2021/04/02 08:25:22;;;;;;;7.87;3.90;;;;;;;7.20;67.44;101658.63;113005;1209;64352;-76
2021/04/02 08:27:49;;;;;;;8.55;4.15;;;;;;;7.17;67.55;101665.99;112971;1209;65693;-75
2021/04/02 08:30:18;;;;;;;7.43;3.90;;;;;;;7.07;67.33;101664.10;113007;1209;64384;-75
2021/04/02 08:32:48;;;;;;;7.23;3.27;;;;;;;7.03;67.82;101664.49;112957;1209;64362;-75
2021/04/02 08:35:19;;;;;;;5.23;3.10;;;;;;;7.04;67.93;101658.27;113355;1209;64529;-76
2021/04/02 08:38:00;;;;;;;6.50;4.03;;;;;;;7.05;67.43;101660.75;114061;1209;64465;-77
2021/04/02 08:40:27;;;;;;;6.80;4.50;;;;;;;7.18;67.65;101654.45;113596;1209;64324;-75
2021/04/02 08:43:02;;;;;;;6.50;2.50;;;;;;;7.17;67.49;101664.18;112909;1209;64491;-75
2021/04/02 08:45:34;;;;;;;7.27;3.27;;;;;;;7.24;67.11;101657.41;113047;1209;64371;-76
2021/04/02 08:48:01;;;;;;;6.27;3.97;;;;;;;7.36;66.91;101658.19;113021;1209;64531;-77
2021/04/02 08:50:28;;;;;;;6.33;3.20;;;;;;;7.44;66.12;101666.30;112925;1209;64419;-75
2021/04/02 08:53:06;;;;;;;4.50;2.83;;;;;;;7.42;66.21;101665.59;112948;1209;64396;-75
2021/04/02 08:55:33;;;;;;;6.77;2.80;;;;;;;7.37;66.40;101665.13;113625;1209;64416;-75
2021/04/02 08:58:02;;;;;;;5.53;2.93;;;;;;;7.29;66.83;101663.16;112945;1209;64250;-76
2021/04/02 09:00:29;;;;;;;4.53;2.50;;;;;;;7.17;66.70;101664.18;113016;1209;64943;-77
2021/04/02 09:02:56;;;;;;;8.10;3.03;;;;;;;7.05;67.11;101665.20;112924;1209;64416;-75
2021/04/02 09:05:24;;;;;;;4.77;2.40;;;;;;;7.03;67.13;101667.13;113024;1209;65588;-75
2021/04/02 09:07:57;;;;;;;6.83;3.03;;;;;;;7.01;66.78;101666.42;112951;1209;65335;-74
2021/04/02 09:10:24;;;;;;;5.40;2.10;;;;;;;6.93;66.91;101662.63;113962;1207;64329;-75
2021/04/02 09:12:53;;;;;;;7.50;2.80;;;;;;;6.84;67.37;101652.85;112957;1209;64339;-77
2021/04/02 09:15:29;;;;;;;4.47;2.17;;;;;;;6.83;67.68;101659.08;113437;1209;65133;-75
2021/04/02 09:18:18;;;;;;;4.40;2.20;;;;;;;6.82;67.25;101654.78;113017;1209;64442;-76
2021/04/02 09:20:45;;;;;;;4.10;2.40;;;;;;;6.73;67.38;101645.80;113038;1209;64384;-75
2021/04/02 09:23:12;;;;;;;6.30;2.50;;;;;;;6.69;67.00;101648.81;115987;1209;62225;-75
2021/04/02 09:25:44;;;;;;;7.05;2.70;;;;;;;6.64;66.91;101640.46;115956;1208;62780;-75
2021/04/02 09:28:10;;;;;;;9.30;2.50;;;;;;;6.61;66.94;101638.06;114171;1209;64454;-75
2021/04/02 09:30:37;;;;;;;5.10;2.10;;;;;;;6.68;67.15;101626.06;112919;1209;65540;-74
2021/04/02 09:33:05;;;;;;;5.50;2.20;;;;;;;6.75;66.20;101627.22;112889;1209;64304;-75
2021/04/02 09:35:32;;;;;;;6.40;2.57;;;;;;;6.82;65.11;101619.63;112966;1209;64333;-76
2021/04/02 09:38:02;;;;;;;6.13;2.13;;;;;;;6.92;65.84;101616.09;112878;1209;64521;-75
2021/04/02 09:40:28;;;;;;;6.37;1.93;;;;;;;7.03;64.91;101603.81;112885;1209;64387;-75
2021/04/02 09:42:57;;;;;;;5.43;2.27;;;;;;;7.10;64.54;101604.98;112941;1209;64884;-76
2021/04/02 09:45:27;;;;;;;8.10;2.10;;;;;;;7.15;63.66;101602.78;113287;1209;64389;-75
2021/04/02 09:47:54;;;;;;;3.85;2.10;;;;;;;7.15;63.80;101608.89;113116;1209;64419;-76
2021/04/02 09:50:22;;;;;;;5.30;1.63;;;;;;;7.24;63.38;101601.98;112982;1209;64977;-77
2021/04/02 09:52:49;;;;;;;5.57;1.90;;;;;;;7.37;63.59;101600.95;112914;1209;64473;-75
2021/04/02 09:55:16;;;;;;;7.73;2.07;;;;;;;7.34;62.97;101599.41;113276;1209;64377;-75
2021/04/02 09:57:47;;;;;;;7.80;2.05;;;;;;;7.25;62.57;101613.41;113115;1209;64317;-76
2021/04/02 10:00:15;;;;;;;6.90;2.13;;;;;;;7.10;63.32;101610.27;113017;1209;64422;-76
2021/04/02 10:02:42;;;;;;;5.93;2.10;;;;;;;7.15;63.52;101610.70;113508;1209;64355;-77
2021/04/02 10:05:09;;;;;;;6.77;3.10;;;;;;;7.11;62.11;101602.20;112933;1209;65616;-76
2021/04/02 10:07:36;;;;;;;6.43;2.83;;;;;;;7.01;62.90;101596.02;112863;1209;65210;-75
2021/04/02 10:10:05;;;;;;;7.77;2.40;;;;;;;7.03;62.93;101606.45;112987;1209;64381;-76
2021/04/02 10:12:32;;;;;;;6.00;2.23;;;;;;;6.97;62.96;101607.83;113002;1209;64396;-77
2021/04/02 10:15:03;;;;;;;4.93;2.47;;;;;;;7.02;63.29;101592.44;112937;1209;64410;-74
2021/04/02 10:17:30;;;;;;;7.43;2.70;;;;;;;7.16;64.24;101596.52;112993;1209;64464;-76
2021/04/02 10:19:57;;;;;;;4.97;2.40;;;;;;;7.20;63.23;101599.75;112928;1209;64458;-75
2021/04/02 10:22:24;;;;;;;8.30;3.90;;;;;;;7.18;62.78;101597.23;112978;1209;64355;-76
2021/04/02 10:24:50;;;;;;;9.87;5.57;;;;;;;7.16;63.05;101591.25;112967;1209;65350;-76
2021/04/02 10:27:17;;;;;;;11.55;5.40;;;;;;;7.11;63.63;101585.53;112855;1209;64433;-77
2021/04/02 10:29:43;;;;;;;13.55;5.40;;;;;;;7.06;63.83;101595.66;112926;1209;65595;-76
2021/04/02 10:32:10;;;;;;;10.60;5.07;;;;;;;7.05;64.21;101580.78;112938;1209;65598;-75
2021/04/02 10:34:37;;;;;;;9.83;4.90;;;;;;;7.10;63.91;101579.43;113051;1209;64371;-76
2021/04/02 10:37:06;;;;;;;8.60;4.67;;;;;;;7.02;63.78;101573.14;112996;1209;64406;-77
2021/04/02 10:39:33;;;;;;;12.35;5.70;;;;;;;7.10;64.13;101573.33;113162;1209;64531;-75
2021/04/02 10:42:01;;;;;;;15.25;6.40;;;;;;;7.17;62.51;101582.38;113185;1209;64371;-78
2021/04/02 10:44:27;;;;;;;7.03;3.50;;;;;;;7.15;62.66;101586.95;113003;1209;64378;-75
2021/04/02 10:46:54;;;;;;;10.73;4.83;;;;;;;7.18;61.83;101612.23;112936;1209;64359;-77
2021/04/02 10:49:20;;;;;;;10.13;5.67;;;;;;;7.10;61.54;101597.90;112904;1209;65622;-76
2021/04/02 10:51:47;;;;;;;12.35;6.80;;;;;;;7.07;61.09;101610.50;112936;1209;64384;-78
2021/04/02 10:54:14;;;;;;;11.50;6.37;;;;;;;7.13;61.80;101599.44;112900;1209;64374;-76
2021/04/02 10:56:40;;;;;;;9.10;4.83;;;;;;;7.15;61.27;101618.61;112985;1209;64381;-75
2021/04/02 10:59:07;;;;;;;10.00;5.47;;;;;;;7.10;59.66;101634.01;112906;1209;65511;-75
2021/04/02 11:01:34;;;;;;;11.37;3.87;;;;;;;7.05;59.76;101630.91;112883;1209;64457;-77
2021/04/02 11:04:00;;;;;;;9.10;3.40;;;;;;;7.07;60.22;101615.78;112860;1209;64419;-77
2021/04/02 11:06:27;;;;;;;6.17;2.53;;;;;;;7.13;60.07;101616.09;112983;1209;64652;-77
2021/04/02 11:08:53;;;;;;;5.45;2.50;;;;;;;7.12;60.16;101616.25;112942;1209;64356;-77
2021/04/02 11:11:20;;;;;;;6.50;2.27;;;;;;;7.07;59.87;101619.25;112985;1209;64477;-77
2021/04/02 11:13:46;;;;;;;12.63;1.80;;;;;;;7.02;60.63;101602.16;112902;1209;64340;-76
2021/04/02 11:16:13;;;;;;;6.30;2.17;;;;;;;6.96;60.33;101614.05;112901;1209;64464;-77
2021/04/02 11:18:45;;;;;;;4.87;1.67;;;;;;;6.94;61.28;101608.06;112920;1209;65523;-76
2021/04/02 11:21:13;;;;;;;8.07;1.37;;;;;;;7.04;59.60;101592.31;113180;1209;64323;-76
2021/04/02 11:23:40;;;;;;;4.37;1.30;;;;;;;7.19;58.55;101596.28;113121;1209;64457;-76
2021/04/02 11:26:07;;;;;;;5.40;1.73;;;;;;;7.37;58.39;101590.39;113036;1209;64391;-80
2021/04/02 11:28:33;;;;;;;4.63;1.70;;;;;;;7.31;58.47;101595.23;113053;1209;64380;-79
2021/04/02 11:31:00;;;;;;;9.20;2.20;;;;;;;7.24;58.67;101583.52;113020;1209;64476;-77
2021/04/02 11:33:26;;;;;;;6.20;1.50;;;;;;;7.21;58.49;101575.05;112986;1209;64384;-76
2021/04/02 11:35:54;;;;;;;3.67;1.60;;;;;;;7.19;58.34;101567.25;113239;1209;65348;-77